메인 페이지
METAR-TAF:

METAR-TAF

공항 :

아카풀코, 멕시코

위도: 16-46N, 경도: 099-45W, 고도: 5m

현재 날씨관측

예보는 40분 전, 14:40시(UTC)에 발표되었습니다.
5kt
온도 25°C
습도 74%
기압 1015 hPa
시정: 12.9km
맑음

METAR: MMAA 111440Z 35005KT 8SM SKC 25/20 A2996 RMK SLP147 52023 910 HZY

시각: 09:20 (15:20 UTC)

예보

예보는 3 시간 56분 전, 11:24시(UTC)에 발표되었습니다.
예보 대상 시간: 11일 12시부터 12일 18시까지 (UTC)
북북동5kt
시정: 9.7km
고도 30000ft 상공 구름 보통
연무
11일 1600시부터 (UTC)
남서10kt
시정: 10km
맑음
12일 0300시부터 (UTC)
북북동5kt
시정: 10km
고도 30000ft 상공 구름 보통
12일 1600시부터 (UTC)
남서10kt
시정: 10km
고도 30000ft 상공 구름 보통

TAF: MMAA 111124Z 1112/1218 02005KT 6SM HZ SCT300 TX30/1121Z TN21/1112Z FM111600 23010KT P6SM SKC FM120300 02005KT P6SM SCT300 FM121600 23010KT P6SM SCT300

4,000개 이상의 공항 관측 자료 및 예보 (METAR 및 TAF 보고).

지도상에서 검색 가능한 기상관측소가 노란 점과 빨간 점으로 표시되어 있습니다.

기상관측소 명을 보려면 표시 위로 마우스를 이동하세요.

날씨 관측과 예보를 보려면 클릭하세요.

지도 변경 : 확대하려면 엑스 표시가 있는 녹색 버튼, 축소하려면 빼기 표시가 있는 녹색 버튼, 다음 페이지의 지도를 보려면 녹색 화살표를 클릭하세요.


METAR-TAF: